Terminal Aerodrome Forecast
Issued by NWS

Current Version | Previous Version | Text Only | Print | Product List | Glossary On
Versions: 1 2 3 4 5 6 7 8 9 10 11 12 13 14 15 16
000
FTUS41 KPBZ 251100
TAFMGW
TAF
KMGW 251139Z 2512/2612 25010KT P6SM BKN025
     FM252200 24007KT P6SM BKN050
     FM260200 VRB04KT P6SM SCT250=

USA.gov is the U.S. government's official web portal to all federal, state and local government web resources and services.